Time;durP1;ratioP1;P1;durP2;ratioP2;P2;SDS_P1;SDS_P2;PMS_P1;PMS_P2;Temp;Humidity;BMP_temperature;BMP_pressure;BME280_temperature;BME280_humidity;BME280_pressure;Samples;Min_cycle;Max_cycle;Signal;HPM_P1;HPM_P2
2022/03/05 00:00:06;;;;;;;30.13;16.33;;;5.10;89.30;;;;;;5072407;28;20032;-69
2022/03/05 00:02:36;;;;;;;;;;;5.30;89.30;;;;;;5072207;28;20063;-69
2022/03/05 00:05:03;;;;;;;35.60;18.02;;;5.40;89.20;;;;;;5054451;28;19908;-71
2022/03/05 00:07:28;;;;;;;33.67;16.92;;;5.40;88.80;;;;;;5072377;28;20364;-69
2022/03/05 00:09:54;;;;;;;39.00;18.88;;;5.30;89.40;;;;;;5075552;28;20032;-69
2022/03/05 00:12:20;;;;;;;33.50;16.90;;;5.30;89.30;;;;;;5076054;28;20024;-69
2022/03/05 00:14:47;;;;;;;35.72;17.88;;;5.10;89.80;;;;;;5075827;28;20082;-69
2022/03/05 00:17:12;;;;;;;34.65;16.42;;;5.00;90.70;;;;;;5075549;28;20021;-69
2022/03/05 00:19:39;;;;;;;35.20;17.42;;;5.10;90.50;;;;;;5075709;28;20481;-69
2022/03/05 00:22:05;;;;;;;33.47;16.92;;;5.10;90.40;;;;;;5075544;28;20049;-69
2022/03/05 00:24:31;;;;;;;31.45;17.50;;;5.00;90.40;;;;;;5075605;28;20215;-69
2022/03/05 00:26:57;;;;;;;36.58;16.50;;;4.70;91.00;;;;;;5075667;28;20126;-69
2022/03/05 00:29:25;;;;;;;31.08;17.20;;;4.80;91.30;;;;;;5057895;28;20058;-69
2022/03/05 00:31:51;;;;;;;31.33;17.05;;;4.90;91.10;;;;;;5075116;28;20035;-69
2022/03/05 00:34:17;;;;;;;37.03;18.25;;;4.90;90.90;;;;;;5075630;28;20107;-69
2022/03/05 00:36:42;;;;;;;38.90;16.77;;;4.70;91.50;;;;;;5075773;28;20029;-69
2022/03/05 00:39:08;;;;;;;36.83;16.27;;;4.60;91.80;;;;;;5057808;28;20059;-69
2022/03/05 00:41:34;;;;;;;30.90;16.67;;;4.20;92.40;;;;;;5075294;28;20068;-69
2022/03/05 00:44:00;;;;;;;35.58;16.48;;;4.00;93.40;;;;;;5075517;28;20055;-70
2022/03/05 00:46:26;;;;;;;33.90;16.75;;;3.80;94.30;;;;;;5074903;28;20544;-69
2022/03/05 00:48:53;;;;;;;33.40;16.38;;;3.70;95.40;;;;;;5075500;28;20029;-69
2022/03/05 00:51:19;;;;;;;38.63;17.45;;;3.90;95.90;;;;;;5075055;28;20108;-70
2022/03/05 00:53:44;;;;;;;29.73;17.27;;;4.00;95.50;;;;;;5075213;28;20545;-70
2022/03/05 00:56:10;;;;;;;33.53;16.70;;;4.00;95.30;;;;;;5075060;28;20019;-69
2022/03/05 00:58:36;;;;;;;32.88;16.70;;;4.20;95.20;;;;;;5075179;28;20035;-69
2022/03/05 01:01:02;;;;;;;35.55;17.25;;;4.00;95.50;;;;;;5074674;28;20032;-69
2022/03/05 01:03:28;;;;;;;35.95;16.98;;;3.80;96.10;;;;;;5075222;28;20051;-69
2022/03/05 01:05:54;;;;;;;31.25;15.40;;;3.90;96.30;;;;;;5074955;28;20048;-69
2022/03/05 01:08:20;;;;;;;31.70;16.15;;;4.00;96.10;;;;;;5075025;28;20021;-70
2022/03/05 01:10:46;;;;;;;36.88;17.70;;;4.20;95.40;;;;;;5074734;28;20063;-69
2022/03/05 01:13:12;;;;;;;36.00;16.55;;;4.10;95.20;;;;;;5074950;28;20037;-69
2022/03/05 01:15:38;;;;;;;34.35;17.33;;;4.10;94.80;;;;;;5056410;28;20032;-69
2022/03/05 01:18:05;;;;;;;32.78;16.25;;;4.10;95.30;;;;;;5074848;28;20029;-70
2022/03/05 01:20:31;;;;;;;38.38;18.83;;;4.10;95.60;;;;;;5074727;28;20369;-69
2022/03/05 01:22:57;;;;;;;33.67;17.17;;;4.10;95.10;;;;;;5074542;28;20044;-69
2022/03/05 01:25:23;;;;;;;32.53;16.52;;;4.00;95.20;;;;;;5074421;28;20019;-70
2022/03/05 01:27:49;;;;;;;30.40;17.02;;;3.80;96.60;;;;;;5074378;28;20040;-69
2022/03/05 01:30:15;;;;;;;31.60;15.63;;;3.80;96.50;;;;;;5056360;28;20021;-69
2022/03/05 01:32:41;;;;;;;35.28;17.17;;;3.90;96.70;;;;;;5054313;28;20024;-70
2022/03/05 01:35:09;;;;;;;31.42;15.88;;;3.80;96.50;;;;;;5055004;28;20025;-69
2022/03/05 01:37:34;;;;;;;30.83;16.67;;;3.70;96.70;;;;;;5054166;28;20087;-69
2022/03/05 01:40:00;;;;;;;35.33;16.10;;;3.60;97.50;;;;;;5054540;28;20029;-69
2022/03/05 01:42:26;;;;;;;31.40;16.05;;;3.60;97.60;;;;;;5054147;28;20033;-70
2022/03/05 01:44:52;;;;;;;30.15;16.13;;;3.60;97.60;;;;;;5054083;28;20592;-70
2022/03/05 01:47:19;;;;;;;31.88;15.45;;;3.70;97.80;;;;;;5054258;28;20036;-69
2022/03/05 01:49:44;;;;;;;32.17;16.33;;;3.70;98.00;;;;;;5054214;28;20025;-69
2022/03/05 01:52:11;;;;;;;27.30;16.25;;;3.50;98.50;;;;;;5053920;28;20520;-69
2022/03/05 01:54:39;;;;;;;36.58;16.98;;;3.80;98.40;;;;;;5036498;28;20039;-70
2022/03/05 01:57:05;;;;;;;30.95;15.60;;;3.70;98.30;;;;;;5053928;28;20021;-70
2022/03/05 01:59:33;;;;;;;36.72;16.45;;;3.60;98.10;;;;;;5053710;28;20461;-70
2022/03/05 02:01:59;;;;;;;37.33;18.67;;;3.60;98.60;;;;;;5053916;28;20033;-69
2022/03/05 02:04:25;;;;;;;33.83;17.40;;;3.60;98.60;;;;;;5053976;28;20031;-70
2022/03/05 02:06:54;;;;;;;34.72;16.95;;;3.90;98.80;;;;;;5054036;28;20412;-69
2022/03/05 02:09:20;;;;;;;31.50;16.60;;;3.80;98.70;;;;;;5053989;28;20032;-69
2022/03/05 02:11:46;;;;;;;37.33;17.08;;;4.10;98.70;;;;;;5071561;28;20032;-69
2022/03/05 02:14:17;;;;;;;32.85;16.58;;;4.10;98.40;;;;;;5073570;28;20043;-69
2022/03/05 02:16:43;;;;;;;32.35;16.70;;;4.10;98.50;;;;;;5073401;28;20043;-70
2022/03/05 02:19:10;;;;;;;34.35;17.02;;;4.00;98.70;;;;;;5073686;28;20028;-69
2022/03/05 02:21:38;;;;;;;31.77;16.42;;;4.00;99.00;;;;;;5073191;28;20405;-70
2022/03/05 02:24:04;;;;;;;35.58;18.05;;;3.90;99.30;;;;;;5073319;28;20028;-69
2022/03/05 02:26:30;;;;;;;31.75;16.55;;;3.90;99.40;;;;;;5073231;28;20036;-69
2022/03/05 02:28:56;;;;;;;30.38;16.55;;;3.90;99.70;;;;;;5073106;28;20028;-70
2022/03/05 02:31:23;;;;;;;34.33;17.05;;;4.00;99.40;;;;;;5072882;28;20029;-69
2022/03/05 02:33:52;;;;;;;34.38;17.95;;;3.90;99.70;;;;;;5073195;28;20035;-70
2022/03/05 02:36:20;;;;;;;31.40;15.15;;;4.00;99.80;;;;;;5073394;28;20012;-69
2022/03/05 02:38:45;;;;;;;32.70;16.70;;;3.90;99.90;;;;;;5072926;28;20485;-69
2022/03/05 02:41:11;;;;;;;33.00;16.65;;;4.10;99.90;;;;;;5073247;28;20036;-70
2022/03/05 02:43:37;;;;;;;35.67;16.67;;;4.10;99.90;;;;;;5072952;28;20029;-69
2022/03/05 02:46:03;;;;;;;35.55;17.13;;;4.00;99.90;;;;;;5073114;28;20082;-70
2022/03/05 02:48:29;;;;;;;32.08;17.30;;;3.90;99.90;;;;;;5073088;28;20103;-70
2022/03/05 02:50:55;;;;;;;31.83;16.67;;;3.80;99.90;;;;;;5072904;28;20464;-70
2022/03/05 02:53:21;;;;;;;34.53;16.92;;;3.90;99.90;;;;;;5073097;28;20043;-69
2022/03/05 02:55:47;;;;;;;34.88;18.35;;;3.70;99.90;;;;;;5073035;28;20469;-70
2022/03/05 02:58:13;;;;;;;35.83;17.67;;;3.50;99.90;;;;;;5072673;28;20024;-69
2022/03/05 03:00:39;;;;;;;31.50;17.55;;;3.40;99.90;;;;;;5073019;28;20032;-69
2022/03/05 03:03:05;;;;;;;41.90;16.55;;;3.20;99.90;;;;;;5072723;28;20039;-69
2022/03/05 03:05:31;;;;;;;32.58;17.83;;;3.30;99.90;;;;;;5072917;28;20443;-69
2022/03/05 03:07:57;;;;;;;37.58;17.23;;;3.40;99.90;;;;;;5072826;28;20028;-69
2022/03/05 03:10:24;;;;;;;41.35;18.75;;;3.50;99.90;;;;;;5072669;28;20017;-69
2022/03/05 03:12:50;;;;;;;34.45;17.73;;;3.60;99.90;;;;;;5072769;28;20036;-69
2022/03/05 03:15:17;;;;;;;31.80;18.00;;;3.60;99.90;;;;;;5072734;28;20029;-70
2022/03/05 03:17:45;;;;;;;39.65;17.80;;;3.50;99.90;;;;;;5072699;28;20157;-70
2022/03/05 03:20:13;;;;;;;36.08;17.48;;;3.30;99.90;;;;;;5054815;28;20431;-70
2022/03/05 03:22:39;;;;;;;36.97;18.42;;;3.40;99.90;;;;;;5072364;28;20048;-70
2022/03/05 03:25:06;;;;;;;34.47;17.67;;;3.40;99.90;;;;;;5072242;28;20431;-69
2022/03/05 03:27:33;;;;;;;43.97;18.42;;;3.40;99.90;;;;;;5072428;28;20449;-69
2022/03/05 03:29:59;;;;;;;32.95;18.38;;;3.40;99.90;;;;;;5054760;28;20366;-69
2022/03/05 03:32:25;;;;;;;44.42;17.83;;;3.30;99.90;;;;;;5072766;28;20067;-71
2022/03/05 03:34:51;;;;;;;35.35;18.45;;;3.30;99.90;;;;;;5072569;28;20069;-70
2022/03/05 03:37:17;;;;;;;35.72;18.05;;;3.30;99.90;;;;;;5072592;28;20381;-70
2022/03/05 03:39:42;;;;;;;36.88;19.27;;;3.40;99.90;;;;;;5072117;28;20020;-70
2022/03/05 03:42:08;;;;;;;36.85;17.90;;;3.40;99.90;;;;;;5072552;28;20055;-70
2022/03/05 03:44:34;;;;;;;39.05;18.05;;;3.30;99.90;;;;;;5075724;28;20029;-69
2022/03/05 03:47:00;;;;;;;34.20;17.92;;;3.30;99.90;;;;;;5076610;28;20107;-70
2022/03/05 03:49:26;;;;;;;37.75;17.98;;;3.20;99.90;;;;;;5076345;28;20033;-70
2022/03/05 03:51:52;;;;;;;38.25;18.30;;;3.30;99.90;;;;;;5076321;28;20101;-70
2022/03/05 03:54:17;;;;;;;35.85;17.55;;;3.20;99.90;;;;;;5076131;28;20028;-69
2022/03/05 03:56:43;;;;;;;37.30;18.35;;;3.00;99.90;;;;;;5076399;28;20027;-69
2022/03/05 03:59:09;;;;;;;33.97;18.48;;;2.80;99.90;;;;;;5076328;28;20036;-70
2022/03/05 04:01:35;;;;;;;35.38;18.13;;;2.90;99.90;;;;;;5076080;28;20037;-70
2022/03/05 04:04:00;;;;;;;45.05;19.38;;;2.90;99.90;;;;;;5076383;28;20024;-70
2022/03/05 04:08:41;;;;;;;35.58;18.33;;;2.80;99.90;;;;;;5076078;28;20027;-70
2022/03/05 04:09:12;;;;;;;37.58;17.45;;;2.70;99.90;;;;;;5075737;28;20469;-70
2022/03/05 04:11:39;;;;;;;37.33;17.13;;;2.80;99.90;;;;;;5075962;28;20021;-69
2022/03/05 04:14:04;;;;;;;36.75;18.05;;;2.90;99.90;;;;;;5076197;28;20484;-70
2022/03/05 04:16:30;;;;;;;40.10;18.98;;;2.90;99.90;;;;;;5075880;28;20024;-71
2022/03/05 04:18:56;;;;;;;43.60;19.05;;;2.90;99.90;;;;;;5075804;28;20051;-71
2022/03/05 04:21:22;;;;;;;38.60;18.73;;;2.80;99.90;;;;;;5075872;28;20047;-70
2022/03/05 04:23:48;;;;;;;40.20;18.67;;;2.70;99.90;;;;;;5075665;28;20396;-69
2022/03/05 04:26:13;;;;;;;39.28;17.27;;;2.70;99.90;;;;;;5075783;28;20479;-70
2022/03/05 04:28:39;;;;;;;41.38;20.77;;;2.60;99.90;;;;;;5075509;28;20089;-70
2022/03/05 04:31:05;;;;;;;36.83;18.67;;;2.40;99.90;;;;;;5075626;28;20027;-70
2022/03/05 04:33:31;;;;;;;38.33;18.00;;;2.30;99.90;;;;;;5041107;28;20119;-70
2022/03/05 04:35:57;;;;;;;35.30;17.73;;;2.30;99.90;;;;;;5075637;28;20079;-69
2022/03/05 04:38:23;;;;;;;37.78;18.30;;;2.40;99.90;;;;;;5057598;28;20120;-69
2022/03/05 04:40:48;;;;;;;32.03;17.48;;;2.20;99.90;;;;;;5075304;28;20086;-69
2022/03/05 04:43:14;;;;;;;37.08;18.42;;;1.90;99.90;;;;;;5075405;28;20043;-69
2022/03/05 04:45:40;;;;;;;36.70;19.30;;;1.90;99.90;;;;;;5075485;28;20562;-69
2022/03/05 04:48:06;;;;;;;37.15;18.70;;;2.00;99.90;;;;;;5075452;28;20029;-69
2022/03/05 04:50:33;;;;;;;36.38;17.92;;;2.10;99.90;;;;;;5040635;28;20028;-70
2022/03/05 04:52:58;;;;;;;52.90;18.70;;;2.20;99.90;;;;;;5057237;28;20162;-69
2022/03/05 04:55:24;;;;;;;31.92;17.40;;;2.20;99.90;;;;;;5074817;28;20524;-70
2022/03/05 04:57:50;;;;;;;35.58;17.88;;;2.20;99.90;;;;;;5075322;28;20025;-69
2022/03/05 05:00:16;;;;;;;35.55;17.35;;;2.20;99.90;;;;;;5075256;28;20047;-69
2022/03/05 05:02:42;;;;;;;36.35;18.13;;;2.30;99.90;;;;;;5074675;28;20477;-69
2022/03/05 05:05:08;;;;;;;39.38;17.30;;;1.80;99.90;;;;;;5074916;28;20028;-69
2022/03/05 05:07:34;;;;;;;41.08;19.75;;;1.50;99.90;;;;;;5074481;28;20035;-70
2022/03/05 05:10:00;;;;;;;37.20;18.27;;;1.40;99.90;;;;;;5074984;28;20051;-70
2022/03/05 05:12:25;;;;;;;33.85;17.27;;;1.50;99.90;;;;;;5056996;28;20025;-70
2022/03/05 05:14:51;;;;;;;37.75;17.70;;;1.70;99.90;;;;;;5074730;28;20024;-70
2022/03/05 05:17:17;;;;;;;32.95;17.67;;;1.60;99.90;;;;;;5074724;28;20063;-70
2022/03/05 05:19:43;;;;;;;36.05;16.83;;;1.40;99.90;;;;;;5074870;28;20029;-70
2022/03/05 05:22:08;;;;;;;36.70;18.27;;;1.40;99.90;;;;;;5074264;28;20079;-70
2022/03/05 05:24:36;;;;;;;39.42;19.20;;;1.60;99.90;;;;;;5056667;28;20060;-70
2022/03/05 05:27:03;;;;;;;38.10;19.30;;;1.60;99.90;;;;;;5074575;28;20016;-72
2022/03/05 05:29:29;;;;;;;36.95;17.73;;;1.50;99.90;;;;;;5074698;28;20033;-70
2022/03/05 05:31:55;;;;;;;42.78;18.35;;;1.50;99.90;;;;;;5074566;28;20090;-71
2022/03/05 05:34:22;;;;;;;39.25;18.25;;;1.60;99.90;;;;;;5074496;28;20484;-70
2022/03/05 05:36:48;;;;;;;39.40;18.88;;;1.60;99.90;;;;;;5074225;28;20082;-71
2022/03/05 05:39:15;;;;;;;36.97;17.88;;;1.60;99.90;;;;;;5074461;28;20021;-71
2022/03/05 05:41:41;;;;;;;45.03;17.90;;;1.60;99.90;;;;;;5074129;28;20041;-70
2022/03/05 05:44:09;;;;;;;45.95;19.05;;;1.70;99.90;;;;;;5074463;28;20028;-70
2022/03/05 05:46:35;;;;;;;38.17;17.90;;;1.70;99.90;;;;;;5074166;28;20048;-72
2022/03/05 05:49:02;;;;;;;37.22;19.13;;;1.70;99.90;;;;;;5074513;28;20025;-70
2022/03/05 05:51:28;;;;;;;38.58;18.67;;;1.70;99.90;;;;;;5073795;28;20039;-70
2022/03/05 05:53:55;;;;;;;38.95;17.75;;;1.50;99.90;;;;;;5073798;28;20427;-69
2022/03/05 05:56:22;;;;;;;36.92;18.63;;;1.60;99.90;;;;;;5074136;28;20081;-69
2022/03/05 05:58:49;;;;;;;37.22;18.42;;;1.60;99.90;;;;;;5055961;28;20028;-70
2022/03/05 06:01:17;;;;;;;51.92;23.33;;;1.60;99.90;;;;;;5056167;28;20437;-70
2022/03/05 06:03:45;;;;;;;49.95;21.17;;;1.50;99.90;;;;;;5073731;28;20036;-69
2022/03/05 06:06:13;;;;;;;40.45;21.20;;;1.10;99.90;;;;;;5072833;28;20035;-70
2022/03/05 06:08:39;;;;;;;49.72;21.55;;;1.10;99.90;;;;;;5055848;28;20037;-69
2022/03/05 06:11:05;;;;;;;49.17;23.38;;;1.20;99.90;;;;;;5073748;28;20432;-70
2022/03/05 06:13:31;;;;;;;47.08;22.58;;;1.20;99.90;;;;;;5073511;28;20043;-70
2022/03/05 06:15:57;;;;;;;51.03;24.13;;;1.20;99.90;;;;;;5055868;28;20385;-69
2022/03/05 06:18:23;;;;;;;46.78;21.25;;;1.20;99.90;;;;;;5073538;28;20354;-69
2022/03/05 06:20:49;;;;;;;45.53;22.10;;;1.40;99.90;;;;;;5073018;28;20035;-69
2022/03/05 06:23:18;;;;;;;55.92;26.20;;;1.40;99.90;;;;;;5073438;28;20049;-70
2022/03/05 06:25:44;;;;;;;57.92;29.17;;;1.50;99.90;;;;;;5073398;28;20602;-70
2022/03/05 06:28:09;;;;;;;100.55;35.60;;;1.40;99.90;;;;;;5073128;28;20028;-69
2022/03/05 06:30:35;;;;;;;84.75;34.33;;;1.40;99.90;;;;;;5073267;28;20017;-69
2022/03/05 06:33:01;;;;;;;105.43;42.47;;;1.30;99.90;;;;;;5073214;28;20473;-70
2022/03/05 06:35:27;;;;;;;82.18;35.63;;;1.20;99.90;;;;;;5073192;28;20031;-70
2022/03/05 06:37:52;;;;;;;82.80;36.10;;;1.30;99.90;;;;;;5073184;28;20020;-70
2022/03/05 06:40:18;;;;;;;74.45;30.67;;;1.30;99.90;;;;;;5055210;28;20626;-70
2022/03/05 06:42:47;;;;;;;52.97;20.83;;;1.40;99.90;;;;;;5054959;28;20072;-70
2022/03/05 06:45:13;;;;;;;62.72;28.38;;;1.50;99.90;;;;;;5073267;28;20024;-70
2022/03/05 06:47:39;;;;;;;83.18;30.33;;;1.60;99.90;;;;;;5073174;28;20380;-69
2022/03/05 06:50:08;;;;;;;53.97;24.98;;;1.60;99.90;;;;;;5054812;28;20031;-70
2022/03/05 06:52:34;;;;;;;68.07;29.75;;;1.40;99.90;;;;;;5055225;28;20393;-70
2022/03/05 06:54:59;;;;;;;74.20;31.70;;;1.50;99.90;;;;;;5072894;28;20035;-70
2022/03/05 06:57:26;;;;;;;77.90;28.58;;;1.30;99.90;;;;;;5073008;28;20070;-70
2022/03/05 06:59:53;;;;;;;66.30;27.50;;;1.00;99.90;;;;;;5072909;28;20033;-69
2022/03/05 07:02:19;;;;;;;60.75;26.30;;;1.10;99.90;;;;;;5073259;28;20393;-70
2022/03/05 07:04:45;;;;;;;54.80;24.50;;;1.30;99.90;;;;;;5072705;28;20032;-70
2022/03/05 07:07:10;;;;;;;56.63;25.70;;;1.50;99.90;;;;;;5073030;28;20074;-69
2022/03/05 07:09:36;;;;;;;60.20;25.58;;;1.50;99.90;;;;;;5072381;28;20051;-70
2022/03/05 07:12:02;;;;;;;55.50;24.80;;;1.60;99.90;;;;;;5072965;28;20029;-70
2022/03/05 07:14:28;;;;;;;58.55;23.67;;;1.80;99.90;;;;;;5072743;28;20070;-70
2022/03/05 07:16:54;;;;;;;54.67;23.25;;;2.00;99.90;;;;;;5072702;28;20063;-70
2022/03/05 07:19:21;;;;;;;48.28;21.60;;;2.10;99.90;;;;;;5072190;28;20029;-70
2022/03/05 07:21:47;;;;;;;44.53;20.40;;;2.20;99.90;;;;;;5054391;28;20036;-70
2022/03/05 07:24:13;;;;;;;45.28;20.38;;;2.30;99.90;;;;;;5072644;28;20104;-71
2022/03/05 07:26:39;;;;;;;40.60;20.83;;;2.30;99.90;;;;;;5054553;28;20619;-70
2022/03/05 07:29:06;;;;;;;44.47;21.02;;;2.50;99.90;;;;;;5072640;28;20100;-78
2022/03/05 07:31:31;;;;;;;46.40;23.10;;;2.60;99.90;;;;;;5072349;28;20375;-70
2022/03/05 07:33:57;;;;;;;50.63;22.65;;;2.70;99.90;;;;;;5072535;28;20029;-70
2022/03/05 07:36:23;;;;;;;45.13;23.45;;;2.80;99.90;;;;;;5072620;28;20400;-76
2022/03/05 07:38:48;;;;;;;55.58;25.45;;;2.60;99.90;;;;;;5072278;28;20066;-70
2022/03/05 07:41:14;;;;;;;49.92;23.85;;;2.20;99.90;;;;;;5072494;28;20392;-76
2022/03/05 07:43:40;;;;;;;50.22;25.08;;;2.40;99.90;;;;;;5072548;28;20036;-70
2022/03/05 07:46:06;;;;;;;53.40;26.80;;;2.60;99.90;;;;;;5054182;28;20033;-69
2022/03/05 07:48:32;;;;;;;55.00;25.80;;;2.70;99.90;;;;;;5072570;28;20056;-70
2022/03/05 07:51:00;;;;;;;52.90;25.33;;;2.80;99.90;;;;;;5071980;28;20515;-71
2022/03/05 07:53:31;;;;;;;55.92;26.65;;;3.00;99.90;;;;;;5072427;28;20028;-69
2022/03/05 07:55:58;;;;;;;48.58;24.48;;;3.20;99.90;;;;;;5048308;28;20060;-70
2022/03/05 07:58:24;;;;;;;50.88;24.15;;;3.30;99.90;;;;;;5052276;28;20036;-70
2022/03/05 08:00:49;;;;;;;54.55;24.00;;;3.40;99.90;;;;;;5051907;28;20036;-70
2022/03/05 08:03:15;;;;;;;46.22;22.33;;;3.30;99.90;;;;;;5051735;28;20541;-70
2022/03/05 08:05:43;;;;;;;48.30;22.55;;;3.30;99.90;;;;;;5051996;28;20412;-69
2022/03/05 08:08:08;;;;;;;50.78;22.02;;;3.30;99.90;;;;;;5061211;28;20032;-70
2022/03/05 08:10:34;;;;;;;45.58;22.40;;;3.50;99.90;;;;;;5071720;28;20021;-69
2022/03/05 08:13:00;;;;;;;43.17;22.88;;;3.80;99.90;;;;;;5072236;28;20041;-70
2022/03/05 08:15:26;;;;;;;43.65;21.88;;;3.70;99.90;;;;;;5071739;28;20170;-70
2022/03/05 08:17:54;;;;;;;41.90;21.98;;;3.90;99.90;;;;;;5072222;28;20037;-70
2022/03/05 08:20:20;;;;;;;49.15;22.52;;;4.10;99.90;;;;;;5071999;28;20021;-70
2022/03/05 08:22:46;;;;;;;44.13;23.00;;;4.10;99.90;;;;;;5071669;28;20045;-71
2022/03/05 08:25:12;;;;;;;48.40;22.75;;;4.20;99.90;;;;;;5071572;28;20020;-71
2022/03/05 08:27:39;;;;;;;46.63;23.60;;;4.30;99.90;;;;;;5037335;28;20028;-70
2022/03/05 08:30:05;;;;;;;56.95;25.50;;;4.50;99.90;;;;;;5073139;28;20024;-73
2022/03/05 08:32:31;;;;;;;65.25;24.63;;;4.70;99.90;;;;;;5075389;28;20064;-69
2022/03/05 08:34:57;;;;;;;49.92;22.58;;;4.70;99.90;;;;;;5075468;28;20059;-70
2022/03/05 08:37:23;;;;;;;52.75;24.77;;;4.80;99.90;;;;;;5075100;28;20021;-70
2022/03/05 08:39:49;;;;;;;54.05;25.58;;;4.80;99.90;;;;;;5075463;28;20132;-70
2022/03/05 08:42:14;;;;;;;49.50;24.25;;;5.10;99.90;;;;;;5075326;28;20016;-70
2022/03/05 08:44:41;;;;;;;48.08;24.70;;;5.30;99.90;;;;;;5075235;28;20435;-70
2022/03/05 08:47:07;;;;;;;49.78;25.25;;;5.30;99.90;;;;;;5075238;28;20078;-70
2022/03/05 08:49:33;;;;;;;58.95;28.38;;;5.00;99.90;;;;;;5057273;28;20021;-69
2022/03/05 08:51:59;;;;;;;50.92;25.63;;;5.00;99.90;;;;;;5074466;28;20723;-69
2022/03/05 08:54:25;;;;;;;61.83;26.48;;;4.90;99.90;;;;;;5073358;28;20415;-69
2022/03/05 08:56:51;;;;;;;62.30;27.25;;;5.10;99.90;;;;;;5038840;28;20396;-69
2022/03/05 08:59:17;;;;;;;60.45;27.98;;;5.50;99.90;;;;;;5055729;28;20040;-70
2022/03/05 09:01:44;;;;;;;52.15;26.35;;;5.50;99.90;;;;;;5074766;28;20033;-71
2022/03/05 09:04:10;;;;;;;52.70;26.67;;;5.60;99.90;;;;;;5074957;28;20024;-72
2022/03/05 09:06:38;;;;;;;55.13;26.60;;;5.40;99.90;;;;;;5072391;28;20107;-69
2022/03/05 09:09:05;;;;;;;51.90;27.23;;;5.40;99.90;;;;;;5054227;28;20045;-69
2022/03/05 09:11:31;;;;;;;62.65;29.02;;;5.60;99.90;;;;;;5068641;28;20037;-70
2022/03/05 09:13:57;;;;;;;61.90;27.70;;;5.90;99.90;;;;;;5073941;28;20024;-70
2022/03/05 09:16:23;;;;;;;63.20;29.63;;;6.20;99.90;;;;;;5074604;28;20024;-70
2022/03/05 09:18:49;;;;;;;60.28;28.92;;;6.40;99.90;;;;;;5056833;28;20074;-69
2022/03/05 09:21:15;;;;;;;62.25;27.95;;;6.60;99.90;;;;;;5074220;28;20036;-69
2022/03/05 09:23:41;;;;;;;60.92;28.38;;;6.80;99.90;;;;;;5072786;28;20257;-69
2022/03/05 09:26:06;;;;;;;70.28;31.15;;;6.60;99.90;;;;;;5074302;28;20024;-69
2022/03/05 09:28:32;;;;;;;69.22;31.40;;;6.80;99.90;;;;;;5072936;28;20514;-70
2022/03/05 09:30:58;;;;;;;47.95;27.25;;;7.10;99.90;;;;;;5072987;28;20028;-69
2022/03/05 09:33:25;;;;;;;61.55;28.67;;;7.20;99.90;;;;;;5074188;28;20025;-70
2022/03/05 09:35:52;;;;;;;56.92;27.77;;;7.40;99.90;;;;;;5074154;28;20028;-70
2022/03/05 09:38:18;;;;;;;57.97;28.77;;;7.20;99.90;;;;;;5074442;28;20384;-70
2022/03/05 09:40:44;;;;;;;63.33;31.17;;;7.40;99.90;;;;;;5056204;28;20431;-69
2022/03/05 09:43:10;;;;;;;74.75;34.25;;;7.50;99.90;;;;;;5073672;28;20032;-69
2022/03/05 09:45:37;;;;;;;56.45;29.70;;;7.80;99.90;;;;;;5055879;28;20032;-69
2022/03/05 09:48:04;;;;;;;69.40;34.75;;;8.10;99.90;;;;;;5073904;28;20036;-69
2022/03/05 09:50:32;;;;;;;73.13;38.22;;;8.10;99.90;;;;;;5051045;28;20477;-69
2022/03/05 09:52:59;;;;;;;73.53;33.88;;;8.40;99.90;;;;;;5073924;28;20490;-70
2022/03/05 09:55:25;;;;;;;68.65;33.00;;;8.30;99.90;;;;;;5055968;28;20029;-70
2022/03/05 09:57:51;;;;;;;58.10;30.35;;;8.40;99.90;;;;;;5055327;28;20469;-69
2022/03/05 10:00:17;;;;;;;64.80;31.42;;;8.70;99.90;;;;;;5073899;28;20103;-69
2022/03/05 10:02:47;;;;;;;62.42;31.75;;;8.50;99.90;;;;;;5073456;28;20043;-70
2022/03/05 10:05:26;;;;;;;55.00;30.80;;;8.70;99.90;;;;;;5059385;28;20489;-69
2022/03/05 10:07:58;;;;;;;61.42;33.05;;;8.90;99.90;;;;;;5053479;28;20025;-70
2022/03/05 10:10:24;;;;;;;75.88;35.15;;;9.10;99.90;;;;;;5059605;28;20032;-70
2022/03/05 10:12:49;;;;;;;69.95;33.85;;;9.30;99.90;;;;;;5072571;28;20078;-70
2022/03/05 10:15:21;;;;;;;61.20;32.65;;;9.30;99.00;;;;;;5073856;28;20032;-70
2022/03/05 10:17:49;;;;;;;69.67;33.37;;;9.40;99.00;;;;;;5073443;28;20052;-70
2022/03/05 10:20:15;;;;;;;66.70;34.38;;;9.30;98.10;;;;;;5071353;28;20456;-70
2022/03/05 10:22:59;;;;;;;65.00;34.13;;;9.40;99.20;;;;;;5071324;28;20049;-70
2022/03/05 10:25:45;;;;;;;68.05;34.60;;;9.70;96.80;;;;;;5073378;28;20488;-69
2022/03/05 10:28:14;;;;;;;61.13;31.67;;;9.90;97.40;;;;;;5073005;28;20029;-70
2022/03/05 10:30:43;;;;;;;57.50;31.08;;;10.20;97.10;;;;;;5073500;28;20055;-69
2022/03/05 10:33:23;;;;;;;55.83;30.83;;;9.90;95.80;;;;;;5073328;28;20036;-69
2022/03/05 10:35:49;;;;;;;60.80;32.55;;;9.90;96.70;;;;;;5073332;28;20036;-69
2022/03/05 10:38:15;;;;;;;58.65;31.65;;;10.20;95.20;;;;;;5055162;28;20051;-69
2022/03/05 10:40:40;;;;;;;57.67;32.40;;;10.50;94.90;;;;;;5072855;28;20067;-69
2022/03/05 10:43:07;;;;;;;53.38;30.30;;;10.80;94.80;;;;;;5055165;28;20040;-69
2022/03/05 10:45:54;;;;;;;54.22;31.48;;;10.90;95.40;;;;;;5073162;28;20056;-69
2022/03/05 10:48:28;;;;;;;60.78;33.50;;;11.40;94.10;;;;;;5072928;28;20111;-71
2022/03/05 10:50:56;;;;;;;61.28;32.83;;;11.50;94.50;;;;;;5055145;28;20060;-69
2022/03/05 10:54:00;;;;;;;51.63;30.40;;;11.70;93.90;;;;;;5072704;28;20064;-69
2022/03/05 10:56:33;;;;;;;61.97;31.25;;;11.60;93.30;;;;;;5069099;28;20044;-69
2022/03/05 10:59:00;;;;;;;57.25;32.33;;;12.30;93.00;;;;;;5072670;28;20031;-70
2022/03/05 11:01:27;;;;;;;59.97;35.17;;;13.00;91.60;;;;;;5073129;28;20473;-69
2022/03/05 11:03:53;;;;;;;59.58;33.80;;;13.70;91.00;;;;;;5072503;28;20079;-70
2022/03/05 11:06:20;;;;;;;56.03;32.88;;;13.90;89.80;;;;;;5073023;28;20025;-70
2022/03/05 11:08:47;;;;;;;51.97;31.33;;;14.20;88.50;;;;;;5072602;28;20032;-69
2022/03/05 11:11:17;;;;;;;59.17;32.20;;;14.40;87.90;;;;;;5072436;28;20031;-70
2022/03/05 11:13:44;;;;;;;57.00;31.88;;;14.10;87.60;;;;;;5072823;28;20032;-70
2022/03/05 11:16:12;;;;;;;51.13;30.85;;;14.60;85.70;;;;;;5072893;28;20109;-70
2022/03/05 11:18:38;;;;;;;48.20;28.67;;;14.70;86.40;;;;;;5054629;28;20039;-71
2022/03/05 11:21:04;;;;;;;55.42;29.52;;;15.40;83.90;;;;;;5072352;28;20051;-70
2022/03/05 11:23:32;;;;;;;47.53;28.90;;;16.10;82.20;;;;;;5068149;28;20474;-70
2022/03/05 11:25:59;;;;;;;49.60;29.70;;;15.90;81.40;;;;;;5052245;28;20102;-70
2022/03/05 11:28:38;;;;;;;51.97;30.00;;;16.30;81.70;;;;;;5034583;28;20056;-71
2022/03/05 11:31:31;;;;;;;47.40;28.35;;;15.70;80.70;;;;;;5052333;28;20024;-72
2022/03/05 11:34:12;;;;;;;44.15;27.33;;;16.40;79.60;;;;;;5034329;28;20045;-71
2022/03/05 11:36:39;;;;;;;44.10;27.73;;;16.40;77.60;;;;;;5034987;28;20389;-70
2022/03/05 11:39:20;;;;;;;47.53;28.02;;;17.10;77.40;;;;;;5051718;28;20043;-73
2022/03/05 11:41:50;;;;;;;46.90;27.75;;;18.00;76.00;;;;;;5052321;28;20037;-70
2022/03/05 11:44:18;;;;;;;49.97;28.60;;;18.20;75.90;;;;;;5052083;28;20059;-71
2022/03/05 11:46:44;;;;;;;45.40;27.52;;;16.90;75.80;;;;;;5061057;28;20029;-71
2022/03/05 11:49:12;;;;;;;45.95;29.77;;;17.40;76.20;;;;;;5051490;28;20094;-77
2022/03/05 11:51:55;;;;;;;43.38;27.75;;;17.60;72.60;;;;;;5052040;28;20074;-79
2022/03/05 11:54:22;;;;;;;44.45;28.05;;;17.30;75.10;;;;;;5051606;28;20075;-77
2022/03/05 11:57:08;;;;;;;45.00;28.83;;;18.60;73.50;;;;;;5034258;28;20036;-78
2022/03/05 11:59:35;;;;;;;52.15;28.52;;;18.20;73.10;;;;;;5054344;28;20020;-77
2022/03/05 12:02:01;;;;;;;39.60;28.23;;;18.50;74.10;;;;;;5071849;28;20075;-79
2022/03/05 12:04:29;;;;;;;46.38;28.30;;;19.50;71.30;;;;;;5073014;28;20028;-79
2022/03/05 12:06:58;;;;;;;51.53;29.23;;;19.80;73.00;;;;;;5058067;28;20067;-77
2022/03/05 12:09:53;;;;;;;46.88;29.65;;;20.70;70.70;;;;;;5075726;28;20095;-77
2022/03/05 12:12:19;;;;;;;48.97;27.98;;;21.40;69.80;;;;;;5060325;28;20029;-79
2022/03/05 12:15:06;;;;;;;47.03;28.40;;;21.50;68.90;;;;;;5041120;28;20028;-79
2022/03/05 12:17:34;;;;;;;46.25;28.70;;;21.30;68.30;;;;;;5075707;28;20021;-79
2022/03/05 12:20:04;;;;;;;44.03;28.25;;;21.40;67.40;;;;;;5040945;28;20468;-79
2022/03/05 12:22:30;;;;;;;40.97;26.98;;;21.50;67.00;;;;;;5075071;28;20063;-79
2022/03/05 12:24:56;;;;;;;39.70;26.85;;;21.30;67.00;;;;;;5060901;28;20461;-78
2022/03/05 12:27:24;;;;;;;47.42;26.83;;;21.80;65.90;;;;;;5064027;28;20051;-80
2022/03/05 12:29:51;;;;;;;37.92;25.73;;;21.80;64.40;;;;;;5075523;28;20024;-78
2022/03/05 12:32:18;;;;;;;38.13;25.20;;;21.60;64.70;;;;;;5057481;28;20078;-74
2022/03/05 12:34:45;;;;;;;35.55;24.77;;;22.40;64.20;;;;;;5075469;28;20028;-78